sensor_id;sensor_type;location;lat;lon;timestamp;P1;durP1;ratioP1;P2;durP2;ratioP2
74215;SDS011;62577;53.378;-2.914;2022-09-20T00:02:03;7.75;;;4.80;;
74215;SDS011;62577;53.378;-2.914;2022-09-20T00:04:29;6.10;;;3.92;;
74215;SDS011;62577;53.378;-2.914;2022-09-20T00:06:55;11.70;;;4.55;;
74215;SDS011;62577;53.378;-2.914;2022-09-20T00:09:21;7.30;;;4.15;;
74215;SDS011;62577;53.378;-2.914;2022-09-20T00:11:50;7.93;;;4.53;;
74215;SDS011;62577;53.378;-2.914;2022-09-20T00:14:16;8.52;;;4.30;;
74215;SDS011;62577;53.378;-2.914;2022-09-20T00:16:42;8.38;;;4.47;;
74215;SDS011;62577;53.378;-2.914;2022-09-20T00:19:11;10.50;;;5.72;;
74215;SDS011;62577;53.378;-2.914;2022-09-20T00:21:41;7.75;;;4.25;;
74215;SDS011;62577;53.378;-2.914;2022-09-20T00:24:08;7.13;;;4.63;;
74215;SDS011;62577;53.378;-2.914;2022-09-20T00:26:35;9.27;;;4.28;;
74215;SDS011;62577;53.378;-2.914;2022-09-20T00:29:01;7.05;;;4.20;;
74215;SDS011;62577;53.378;-2.914;2022-09-20T00:31:27;6.20;;;4.20;;
74215;SDS011;62577;53.378;-2.914;2022-09-20T00:33:56;6.50;;;4.00;;
74215;SDS011;62577;53.378;-2.914;2022-09-20T00:36:41;5.63;;;3.40;;
74215;SDS011;62577;53.378;-2.914;2022-09-20T00:39:08;7.60;;;3.80;;
74215;SDS011;62577;53.378;-2.914;2022-09-20T00:41:35;6.50;;;4.40;;
74215;SDS011;62577;53.378;-2.914;2022-09-20T00:44:35;7.15;;;3.53;;
74215;SDS011;62577;53.378;-2.914;2022-09-20T00:46:48;7.78;;;3.97;;
74215;SDS011;62577;53.378;-2.914;2022-09-20T00:49:21;6.40;;;4.25;;
74215;SDS011;62577;53.378;-2.914;2022-09-20T00:51:59;5.00;;;4.03;;
74215;SDS011;62577;53.378;-2.914;2022-09-20T00:54:26;7.32;;;4.18;;
74215;SDS011;62577;53.378;-2.914;2022-09-20T00:56:53;11.90;;;4.30;;
74215;SDS011;62577;53.378;-2.914;2022-09-20T00:59:38;5.57;;;3.60;;
74215;SDS011;62577;53.378;-2.914;2022-09-20T01:02:25;6.60;;;4.05;;
74215;SDS011;62577;53.378;-2.914;2022-09-20T01:04:52;6.55;;;3.55;;
74215;SDS011;62577;53.378;-2.914;2022-09-20T01:07:21;5.38;;;3.33;;
74215;SDS011;62577;53.378;-2.914;2022-09-20T01:09:48;5.22;;;3.47;;
74215;SDS011;62577;53.378;-2.914;2022-09-20T01:12:18;6.38;;;3.60;;
74215;SDS011;62577;53.378;-2.914;2022-09-20T01:14:45;5.47;;;3.22;;
74215;SDS011;62577;53.378;-2.914;2022-09-20T01:17:12;5.88;;;3.42;;
74215;SDS011;62577;53.378;-2.914;2022-09-20T01:19:40;8.10;;;4.07;;
74215;SDS011;62577;53.378;-2.914;2022-09-20T01:22:13;7.65;;;3.97;;
74215;SDS011;62577;53.378;-2.914;2022-09-20T01:27:15;6.38;;;3.83;;
74215;SDS011;62577;53.378;-2.914;2022-09-20T01:30:19;6.18;;;3.60;;
74215;SDS011;62577;53.378;-2.914;2022-09-20T01:32:43;8.40;;;4.60;;
74215;SDS011;62577;53.378;-2.914;2022-09-20T01:35:10;8.15;;;3.90;;
74215;SDS011;62577;53.378;-2.914;2022-09-20T01:37:41;7.03;;;4.07;;
74215;SDS011;62577;53.378;-2.914;2022-09-20T01:40:17;5.63;;;3.85;;
74215;SDS011;62577;53.378;-2.914;2022-09-20T01:42:46;7.75;;;4.35;;
74215;SDS011;62577;53.378;-2.914;2022-09-20T01:47:51;6.68;;;3.72;;
74215;SDS011;62577;53.378;-2.914;2022-09-20T01:53:10;6.10;;;3.72;;
74215;SDS011;62577;53.378;-2.914;2022-09-20T01:58:27;8.18;;;4.07;;
74215;SDS011;62577;53.378;-2.914;2022-09-20T02:06:44;10.27;;;4.47;;
74215;SDS011;62577;53.378;-2.914;2022-09-20T02:16:55;9.68;;;4.95;;
74215;SDS011;62577;53.378;-2.914;2022-09-20T02:21:55;7.18;;;4.35;;
74215;SDS011;62577;53.378;-2.914;2022-09-20T02:24:32;7.97;;;3.88;;
74215;SDS011;62577;53.378;-2.914;2022-09-20T02:27:12;7.88;;;4.07;;
74215;SDS011;62577;53.378;-2.914;2022-09-20T02:43:16;6.35;;;4.32;;
74215;SDS011;62577;53.378;-2.914;2022-09-20T02:56:38;8.68;;;5.47;;
74215;SDS011;62577;53.378;-2.914;2022-09-20T03:04:43;9.13;;;5.47;;
74215;SDS011;62577;53.378;-2.914;2022-09-20T03:09:43;13.38;;;6.50;;
74215;SDS011;62577;53.378;-2.914;2022-09-20T03:17:42;10.65;;;6.43;;
74215;SDS011;62577;53.378;-2.914;2022-09-20T03:20:22;13.05;;;6.93;;
74215;SDS011;62577;53.378;-2.914;2022-09-20T03:33:12;10.40;;;6.75;;
74215;SDS011;62577;53.378;-2.914;2022-09-20T03:38:17;11.88;;;7.68;;
74215;SDS011;62577;53.378;-2.914;2022-09-20T03:43:18;10.25;;;6.90;;
74215;SDS011;62577;53.378;-2.914;2022-09-20T03:46:02;9.38;;;6.47;;
74215;SDS011;62577;53.378;-2.914;2022-09-20T04:09:13;13.48;;;;;
74215;SDS011;62577;53.378;-2.914;2022-09-20T04:11:51;11.10;;;6.85;;
74215;SDS011;62577;53.378;-2.914;2022-09-20T04:16:54;11.90;;;7.53;;
74215;SDS011;62577;53.378;-2.914;2022-09-20T04:19:24;11.98;;;7.75;;
74215;SDS011;62577;53.378;-2.914;2022-09-20T04:21:55;12.85;;;8.05;;
74215;SDS011;62577;53.378;-2.914;2022-09-20T04:24:22;15.88;;;9.18;;
74215;SDS011;62577;53.378;-2.914;2022-09-20T04:27:11;12.88;;;8.15;;
74215;SDS011;62577;53.378;-2.914;2022-09-20T04:29:46;13.52;;;7.88;;
74215;SDS011;62577;53.378;-2.914;2022-09-20T04:34:57;13.38;;;7.85;;
74215;SDS011;62577;53.378;-2.914;2022-09-20T04:37:43;10.52;;;6.55;;
74215;SDS011;62577;53.378;-2.914;2022-09-20T04:40:14;11.93;;;7.15;;
74215;SDS011;62577;53.378;-2.914;2022-09-20T04:43:32;11.32;;;7.30;;
74215;SDS011;62577;53.378;-2.914;2022-09-20T04:53:25;15.07;;;8.35;;
74215;SDS011;62577;53.378;-2.914;2022-09-20T04:58:47;13.60;;;7.78;;
74215;SDS011;62577;53.378;-2.914;2022-09-20T05:01:29;11.35;;;6.90;;
74215;SDS011;62577;53.378;-2.914;2022-09-20T05:14:23;13.73;;;8.07;;
74215;SDS011;62577;53.378;-2.914;2022-09-20T05:30:33;9.02;;;6.03;;
74215;SDS011;62577;53.378;-2.914;2022-09-20T05:43:29;10.32;;;6.47;;
74215;SDS011;62577;53.378;-2.914;2022-09-20T05:51:19;9.88;;;6.82;;
74215;SDS011;62577;53.378;-2.914;2022-09-20T06:04:40;9.98;;;6.13;;
74215;SDS011;62577;53.378;-2.914;2022-09-20T06:07:17;10.02;;;6.32;;
74215;SDS011;62577;53.378;-2.914;2022-09-20T06:14:50;12.23;;;6.57;;
74215;SDS011;62577;53.378;-2.914;2022-09-20T06:19:45;13.00;;;7.45;;
74215;SDS011;62577;53.378;-2.914;2022-09-20T06:25:00;8.60;;;5.68;;
74215;SDS011;62577;53.378;-2.914;2022-09-20T06:27:26;9.40;;;5.35;;
74215;SDS011;62577;53.378;-2.914;2022-09-20T06:29:57;9.77;;;6.13;;
74215;SDS011;62577;53.378;-2.914;2022-09-20T06:32:25;8.55;;;5.43;;
74215;SDS011;62577;53.378;-2.914;2022-09-20T06:34:51;10.13;;;6.45;;
74215;SDS011;62577;53.378;-2.914;2022-09-20T06:37:30;10.70;;;5.55;;
74215;SDS011;62577;53.378;-2.914;2022-09-20T06:40:27;11.15;;;6.13;;
74215;SDS011;62577;53.378;-2.914;2022-09-20T06:43:14;9.52;;;5.50;;
74215;SDS011;62577;53.378;-2.914;2022-09-20T06:45:41;10.40;;;6.28;;
74215;SDS011;62577;53.378;-2.914;2022-09-20T06:48:07;9.02;;;6.03;;
74215;SDS011;62577;53.378;-2.914;2022-09-20T06:50:35;11.00;;;7.20;;
74215;SDS011;62577;53.378;-2.914;2022-09-20T06:53:01;12.18;;;6.82;;
74215;SDS011;62577;53.378;-2.914;2022-09-20T06:55:29;9.85;;;7.10;;
74215;SDS011;62577;53.378;-2.914;2022-09-20T06:57:55;8.35;;;5.90;;
74215;SDS011;62577;53.378;-2.914;2022-09-20T07:00:21;11.55;;;6.40;;
74215;SDS011;62577;53.378;-2.914;2022-09-20T07:02:50;9.82;;;5.93;;
74215;SDS011;62577;53.378;-2.914;2022-09-20T07:05:16;7.65;;;5.47;;
74215;SDS011;62577;53.378;-2.914;2022-09-20T07:07:45;13.30;;;6.03;;
74215;SDS011;62577;53.378;-2.914;2022-09-20T07:10:12;8.57;;;5.63;;
74215;SDS011;62577;53.378;-2.914;2022-09-20T07:12:39;8.15;;;6.05;;
74215;SDS011;62577;53.378;-2.914;2022-09-20T07:15:06;6.97;;;5.35;;
74215;SDS011;62577;53.378;-2.914;2022-09-20T07:17:32;8.50;;;6.00;;
74215;SDS011;62577;53.378;-2.914;2022-09-20T07:19:58;9.82;;;6.43;;
74215;SDS011;62577;53.378;-2.914;2022-09-20T07:22:25;10.35;;;6.47;;
74215;SDS011;62577;53.378;-2.914;2022-09-20T07:24:51;8.07;;;5.10;;
74215;SDS011;62577;53.378;-2.914;2022-09-20T07:27:17;9.45;;;5.43;;
74215;SDS011;62577;53.378;-2.914;2022-09-20T07:29:44;7.25;;;5.20;;
74215;SDS011;62577;53.378;-2.914;2022-09-20T07:32:11;12.57;;;6.13;;
74215;SDS011;62577;53.378;-2.914;2022-09-20T07:34:37;8.60;;;5.13;;
74215;SDS011;62577;53.378;-2.914;2022-09-20T07:37:03;10.60;;;6.57;;
74215;SDS011;62577;53.378;-2.914;2022-09-20T07:39:29;12.10;;;5.90;;
74215;SDS011;62577;53.378;-2.914;2022-09-20T07:41:56;9.35;;;6.50;;
74215;SDS011;62577;53.378;-2.914;2022-09-20T07:44:22;10.68;;;6.88;;
74215;SDS011;62577;53.378;-2.914;2022-09-20T07:46:55;11.18;;;7.20;;
74215;SDS011;62577;53.378;-2.914;2022-09-20T07:49:22;12.63;;;7.63;;
74215;SDS011;62577;53.378;-2.914;2022-09-20T07:51:49;9.57;;;6.63;;
74215;SDS011;62577;53.378;-2.914;2022-09-20T07:54:16;10.27;;;7.15;;
74215;SDS011;62577;53.378;-2.914;2022-09-20T07:56:42;12.27;;;7.03;;
74215;SDS011;62577;53.378;-2.914;2022-09-20T07:59:08;11.35;;;7.00;;
74215;SDS011;62577;53.378;-2.914;2022-09-20T08:01:35;11.98;;;6.78;;
74215;SDS011;62577;53.378;-2.914;2022-09-20T08:04:03;16.83;;;6.70;;
74215;SDS011;62577;53.378;-2.914;2022-09-20T08:06:29;10.70;;;5.90;;
74215;SDS011;62577;53.378;-2.914;2022-09-20T08:08:55;9.43;;;5.93;;
74215;SDS011;62577;53.378;-2.914;2022-09-20T08:11:22;7.90;;;5.70;;
74215;SDS011;62577;53.378;-2.914;2022-09-20T08:13:53;9.38;;;6.00;;
74215;SDS011;62577;53.378;-2.914;2022-09-20T08:16:19;9.35;;;5.53;;
74215;SDS011;62577;53.378;-2.914;2022-09-20T08:18:46;10.52;;;5.05;;
74215;SDS011;62577;53.378;-2.914;2022-09-20T08:21:12;8.63;;;5.28;;
74215;SDS011;62577;53.378;-2.914;2022-09-20T08:23:39;10.02;;;5.05;;
74215;SDS011;62577;53.378;-2.914;2022-09-20T08:26:06;11.27;;;5.47;;
74215;SDS011;62577;53.378;-2.914;2022-09-20T08:28:33;6.60;;;4.78;;
74215;SDS011;62577;53.378;-2.914;2022-09-20T08:31:00;8.13;;;4.88;;
74215;SDS011;62577;53.378;-2.914;2022-09-20T08:33:26;9.23;;;5.35;;
74215;SDS011;62577;53.378;-2.914;2022-09-20T08:35:52;8.27;;;5.25;;
74215;SDS011;62577;53.378;-2.914;2022-09-20T08:38:18;7.22;;;4.75;;
74215;SDS011;62577;53.378;-2.914;2022-09-20T08:40:46;8.82;;;4.53;;
74215;SDS011;62577;53.378;-2.914;2022-09-20T08:43:13;8.27;;;4.80;;
74215;SDS011;62577;53.378;-2.914;2022-09-20T08:45:40;8.70;;;4.65;;
74215;SDS011;62577;53.378;-2.914;2022-09-20T08:48:06;11.60;;;5.07;;
74215;SDS011;62577;53.378;-2.914;2022-09-20T08:50:35;7.22;;;4.90;;
74215;SDS011;62577;53.378;-2.914;2022-09-20T08:53:01;6.85;;;4.50;;
74215;SDS011;62577;53.378;-2.914;2022-09-20T08:55:30;9.18;;;4.63;;
74215;SDS011;62577;53.378;-2.914;2022-09-20T08:57:58;18.58;;;4.80;;
74215;SDS011;62577;53.378;-2.914;2022-09-20T09:00:25;8.93;;;4.45;;
74215;SDS011;62577;53.378;-2.914;2022-09-20T09:02:54;8.00;;;4.55;;
74215;SDS011;62577;53.378;-2.914;2022-09-20T09:07:50;5.53;;;3.90;;
74215;SDS011;62577;53.378;-2.914;2022-09-20T09:10:16;7.82;;;4.35;;
74215;SDS011;62577;53.378;-2.914;2022-09-20T09:12:42;8.23;;;4.80;;
74215;SDS011;62577;53.378;-2.914;2022-09-20T09:15:19;7.05;;;3.92;;
74215;SDS011;62577;53.378;-2.914;2022-09-20T09:17:47;9.05;;;4.07;;
74215;SDS011;62577;53.378;-2.914;2022-09-20T09:22:40;6.88;;;4.25;;
74215;SDS011;62577;53.378;-2.914;2022-09-20T09:27:32;6.53;;;4.03;;
74215;SDS011;62577;53.378;-2.914;2022-09-20T09:29:59;11.57;;;4.53;;
74215;SDS011;62577;53.378;-2.914;2022-09-20T09:32:29;6.25;;;4.20;;
74215;SDS011;62577;53.378;-2.914;2022-09-20T09:35:19;11.65;;;4.60;;
74215;SDS011;62577;53.378;-2.914;2022-09-20T09:37:52;7.15;;;4.18;;
74215;SDS011;62577;53.378;-2.914;2022-09-20T09:42:51;7.00;;;3.20;;
74215;SDS011;62577;53.378;-2.914;2022-09-20T09:45:29;4.85;;;2.90;;
74215;SDS011;62577;53.378;-2.914;2022-09-20T09:47:55;3.63;;;3.03;;
74215;SDS011;62577;53.378;-2.914;2022-09-20T09:50:30;5.28;;;3.05;;
74215;SDS011;62577;53.378;-2.914;2022-09-20T09:53:17;3.78;;;2.45;;
74215;SDS011;62577;53.378;-2.914;2022-09-20T09:58:27;6.35;;;2.67;;
74215;SDS011;62577;53.378;-2.914;2022-09-20T10:00:55;4.47;;;2.60;;
74215;SDS011;62577;53.378;-2.914;2022-09-20T10:06:17;5.50;;;2.47;;
74215;SDS011;62577;53.378;-2.914;2022-09-20T10:19:21;4.72;;;2.83;;
74215;SDS011;62577;53.378;-2.914;2022-09-20T10:21:58;3.65;;;2.50;;
74215;SDS011;62577;53.378;-2.914;2022-09-20T10:40:05;4.68;;;2.13;;
74215;SDS011;62577;53.378;-2.914;2022-09-20T10:45:27;3.00;;;1.95;;
74215;SDS011;62577;53.378;-2.914;2022-09-20T10:47:56;3.63;;;2.33;;
74215;SDS011;62577;53.378;-2.914;2022-09-20T10:50:32;3.47;;;1.75;;
74215;SDS011;62577;53.378;-2.914;2022-09-20T11:08:18;4.47;;;1.63;;
74215;SDS011;62577;53.378;-2.914;2022-09-20T11:10:51;3.08;;;2.15;;
74215;SDS011;62577;53.378;-2.914;2022-09-20T11:13:24;4.07;;;2.35;;
74215;SDS011;62577;53.378;-2.914;2022-09-20T11:16:05;4.45;;;2.33;;
74215;SDS011;62577;53.378;-2.914;2022-09-20T11:18:36;3.17;;;2.15;;
74215;SDS011;62577;53.378;-2.914;2022-09-20T11:21:13;4.93;;;2.08;;
74215;SDS011;62577;53.378;-2.914;2022-09-20T11:23:49;4.35;;;2.50;;
74215;SDS011;62577;53.378;-2.914;2022-09-20T11:27:17;2.60;;;2.10;;
74215;SDS011;62577;53.378;-2.914;2022-09-20T11:31:51;3.35;;;2.08;;
74215;SDS011;62577;53.378;-2.914;2022-09-20T11:36:51;3.67;;;2.20;;
74215;SDS011;62577;53.378;-2.914;2022-09-20T11:39:27;3.63;;;2.20;;
74215;SDS011;62577;53.378;-2.914;2022-09-20T11:41:55;3.78;;;2.30;;
74215;SDS011;62577;53.378;-2.914;2022-09-20T11:44:24;5.30;;;2.60;;
74215;SDS011;62577;53.378;-2.914;2022-09-20T11:49:32;3.22;;;2.25;;
74215;SDS011;62577;53.378;-2.914;2022-09-20T11:52:04;5.88;;;2.30;;
74215;SDS011;62577;53.378;-2.914;2022-09-20T11:57:19;3.80;;;2.28;;
74215;SDS011;62577;53.378;-2.914;2022-09-20T11:59:50;3.58;;;2.33;;
74215;SDS011;62577;53.378;-2.914;2022-09-20T12:04:44;4.75;;;2.00;;
74215;SDS011;62577;53.378;-2.914;2022-09-20T12:07:17;3.42;;;2.00;;
74215;SDS011;62577;53.378;-2.914;2022-09-20T12:09:44;3.20;;;2.22;;
74215;SDS011;62577;53.378;-2.914;2022-09-20T12:14:56;4.18;;;2.40;;
74215;SDS011;62577;53.378;-2.914;2022-09-20T12:26:01;3.13;;;2.22;;
74215;SDS011;62577;53.378;-2.914;2022-09-20T12:28:43;3.58;;;2.22;;
74215;SDS011;62577;53.378;-2.914;2022-09-20T12:36:21;3.80;;;2.60;;
74215;SDS011;62577;53.378;-2.914;2022-09-20T12:39:33;4.53;;;2.20;;
74215;SDS011;62577;53.378;-2.914;2022-09-20T12:52:31;4.00;;;2.60;;
74215;SDS011;62577;53.378;-2.914;2022-09-20T12:58:34;3.95;;;2.50;;
74215;SDS011;62577;53.378;-2.914;2022-09-20T13:03:27;2.80;;;1.92;;
74215;SDS011;62577;53.378;-2.914;2022-09-20T13:10:59;4.30;;;2.53;;
74215;SDS011;62577;53.378;-2.914;2022-09-20T13:19:05;3.83;;;2.17;;
74215;SDS011;62577;53.378;-2.914;2022-09-20T13:21:32;3.92;;;2.53;;
74215;SDS011;62577;53.378;-2.914;2022-09-20T13:23:59;5.43;;;2.42;;
74215;SDS011;62577;53.378;-2.914;2022-09-20T13:27:01;5.05;;;2.38;;
74215;SDS011;62577;53.378;-2.914;2022-09-20T13:29:38;8.38;;;2.65;;
74215;SDS011;62577;53.378;-2.914;2022-09-20T13:37:33;4.50;;;2.58;;
74215;SDS011;62577;53.378;-2.914;2022-09-20T13:40:00;4.95;;;2.90;;
74215;SDS011;62577;53.378;-2.914;2022-09-20T13:42:27;4.57;;;2.88;;
74215;SDS011;62577;53.378;-2.914;2022-09-20T13:44:54;4.43;;;2.67;;
74215;SDS011;62577;53.378;-2.914;2022-09-20T13:47:26;4.82;;;2.53;;
74215;SDS011;62577;53.378;-2.914;2022-09-20T13:49:58;4.97;;;2.83;;
74215;SDS011;62577;53.378;-2.914;2022-09-20T13:52:25;3.40;;;2.60;;
74215;SDS011;62577;53.378;-2.914;2022-09-20T13:54:52;3.60;;;2.42;;
74215;SDS011;62577;53.378;-2.914;2022-09-20T13:57:25;4.03;;;2.65;;
74215;SDS011;62577;53.378;-2.914;2022-09-20T13:59:51;5.05;;;3.05;;
74215;SDS011;62577;53.378;-2.914;2022-09-20T14:02:22;4.95;;;2.70;;
74215;SDS011;62577;53.378;-2.914;2022-09-20T14:04:49;5.13;;;2.50;;
74215;SDS011;62577;53.378;-2.914;2022-09-20T14:07:17;4.25;;;2.60;;
74215;SDS011;62577;53.378;-2.914;2022-09-20T14:09:43;4.90;;;2.58;;
74215;SDS011;62577;53.378;-2.914;2022-09-20T14:12:09;4.13;;;2.80;;
74215;SDS011;62577;53.378;-2.914;2022-09-20T14:14:37;3.53;;;2.42;;
74215;SDS011;62577;53.378;-2.914;2022-09-20T14:17:05;4.32;;;2.53;;
74215;SDS011;62577;53.378;-2.914;2022-09-20T14:19:34;3.70;;;2.40;;
74215;SDS011;62577;53.378;-2.914;2022-09-20T14:22:04;3.20;;;2.20;;
74215;SDS011;62577;53.378;-2.914;2022-09-20T14:24:32;4.22;;;2.42;;
74215;SDS011;62577;53.378;-2.914;2022-09-20T14:27:12;4.50;;;2.50;;
74215;SDS011;62577;53.378;-2.914;2022-09-20T14:29:40;4.10;;;2.55;;
74215;SDS011;62577;53.378;-2.914;2022-09-20T14:34:36;4.15;;;2.50;;
74215;SDS011;62577;53.378;-2.914;2022-09-20T14:37:08;5.72;;;2.90;;
74215;SDS011;62577;53.378;-2.914;2022-09-20T14:39:42;3.78;;;2.47;;
74215;SDS011;62577;53.378;-2.914;2022-09-20T14:42:16;5.22;;;2.60;;
74215;SDS011;62577;53.378;-2.914;2022-09-20T14:44:43;4.05;;;2.50;;
74215;SDS011;62577;53.378;-2.914;2022-09-20T14:47:12;4.63;;;2.53;;
74215;SDS011;62577;53.378;-2.914;2022-09-20T14:49:39;4.82;;;2.70;;
74215;SDS011;62577;53.378;-2.914;2022-09-20T14:55:02;4.03;;;2.50;;
74215;SDS011;62577;53.378;-2.914;2022-09-20T14:57:28;4.10;;;2.40;;
74215;SDS011;62577;53.378;-2.914;2022-09-20T14:59:56;3.83;;;2.33;;
74215;SDS011;62577;53.378;-2.914;2022-09-20T15:02:23;3.50;;;2.30;;
74215;SDS011;62577;53.378;-2.914;2022-09-20T15:04:54;4.70;;;2.42;;
74215;SDS011;62577;53.378;-2.914;2022-09-20T15:07:20;3.45;;;2.40;;
74215;SDS011;62577;53.378;-2.914;2022-09-20T15:09:46;5.47;;;2.70;;
74215;SDS011;62577;53.378;-2.914;2022-09-20T15:12:14;3.67;;;2.60;;
74215;SDS011;62577;53.378;-2.914;2022-09-20T15:14:41;5.05;;;2.85;;
74215;SDS011;62577;53.378;-2.914;2022-09-20T15:17:12;4.43;;;2.90;;
74215;SDS011;62577;53.378;-2.914;2022-09-20T15:19:40;4.47;;;2.35;;
74215;SDS011;62577;53.378;-2.914;2022-09-20T15:22:10;5.25;;;2.65;;
74215;SDS011;62577;53.378;-2.914;2022-09-20T15:24:36;4.55;;;2.85;;
74215;SDS011;62577;53.378;-2.914;2022-09-20T15:27:03;4.93;;;2.53;;
74215;SDS011;62577;53.378;-2.914;2022-09-20T15:29:29;5.45;;;2.95;;
74215;SDS011;62577;53.378;-2.914;2022-09-20T15:31:55;6.25;;;3.30;;
74215;SDS011;62577;53.378;-2.914;2022-09-20T15:34:21;4.88;;;2.78;;
74215;SDS011;62577;53.378;-2.914;2022-09-20T15:36:47;5.47;;;2.83;;
74215;SDS011;62577;53.378;-2.914;2022-09-20T15:39:14;3.63;;;2.38;;
74215;SDS011;62577;53.378;-2.914;2022-09-20T15:41:41;3.97;;;2.47;;
74215;SDS011;62577;53.378;-2.914;2022-09-20T15:44:09;4.75;;;2.95;;
74215;SDS011;62577;53.378;-2.914;2022-09-20T15:46:35;4.15;;;2.90;;
74215;SDS011;62577;53.378;-2.914;2022-09-20T15:49:02;3.20;;;2.15;;
74215;SDS011;62577;53.378;-2.914;2022-09-20T15:51:30;4.03;;;2.22;;
74215;SDS011;62577;53.378;-2.914;2022-09-20T15:53:57;5.15;;;2.58;;
74215;SDS011;62577;53.378;-2.914;2022-09-20T15:56:28;3.78;;;2.53;;
74215;SDS011;62577;53.378;-2.914;2022-09-20T15:58:58;3.55;;;2.58;;
74215;SDS011;62577;53.378;-2.914;2022-09-20T16:01:29;3.65;;;2.15;;
74215;SDS011;62577;53.378;-2.914;2022-09-20T16:03:56;4.60;;;2.45;;
74215;SDS011;62577;53.378;-2.914;2022-09-20T16:06:22;7.30;;;2.78;;
74215;SDS011;62577;53.378;-2.914;2022-09-20T16:08:49;4.15;;;2.80;;
74215;SDS011;62577;53.378;-2.914;2022-09-20T16:11:16;4.80;;;3.03;;
74215;SDS011;62577;53.378;-2.914;2022-09-20T16:13:44;4.25;;;3.10;;
74215;SDS011;62577;53.378;-2.914;2022-09-20T16:16:10;4.32;;;2.75;;
74215;SDS011;62577;53.378;-2.914;2022-09-20T16:18:40;3.85;;;2.60;;
74215;SDS011;62577;53.378;-2.914;2022-09-20T16:21:24;5.05;;;2.33;;
74215;SDS011;62577;53.378;-2.914;2022-09-20T16:23:52;3.17;;;2.35;;
74215;SDS011;62577;53.378;-2.914;2022-09-20T16:26:19;5.72;;;2.55;;
74215;SDS011;62577;53.378;-2.914;2022-09-20T16:28:46;3.75;;;2.67;;
74215;SDS011;62577;53.378;-2.914;2022-09-20T16:33:59;5.32;;;2.33;;
74215;SDS011;62577;53.378;-2.914;2022-09-20T16:36:26;4.80;;;2.63;;
74215;SDS011;62577;53.378;-2.914;2022-09-20T16:38:52;3.97;;;2.28;;
74215;SDS011;62577;53.378;-2.914;2022-09-20T16:41:25;3.83;;;2.15;;
74215;SDS011;62577;53.378;-2.914;2022-09-20T16:43:51;3.78;;;2.33;;
74215;SDS011;62577;53.378;-2.914;2022-09-20T16:46:18;6.97;;;2.70;;
74215;SDS011;62577;53.378;-2.914;2022-09-20T16:48:45;4.28;;;2.50;;
74215;SDS011;62577;53.378;-2.914;2022-09-20T16:51:12;3.22;;;2.08;;
74215;SDS011;62577;53.378;-2.914;2022-09-20T16:53:38;5.10;;;2.38;;
74215;SDS011;62577;53.378;-2.914;2022-09-20T16:56:04;5.13;;;2.60;;
74215;SDS011;62577;53.378;-2.914;2022-09-20T16:58:31;6.38;;;2.78;;
74215;SDS011;62577;53.378;-2.914;2022-09-20T17:01:05;4.38;;;2.75;;
74215;SDS011;62577;53.378;-2.914;2022-09-20T17:03:32;6.22;;;2.55;;
74215;SDS011;62577;53.378;-2.914;2022-09-20T17:05:59;4.85;;;2.63;;
74215;SDS011;62577;53.378;-2.914;2022-09-20T17:08:26;4.97;;;2.92;;
74215;SDS011;62577;53.378;-2.914;2022-09-20T17:10:52;5.57;;;4.00;;
74215;SDS011;62577;53.378;-2.914;2022-09-20T17:13:19;5.47;;;3.15;;
74215;SDS011;62577;53.378;-2.914;2022-09-20T17:15:45;4.97;;;3.17;;
74215;SDS011;62577;53.378;-2.914;2022-09-20T17:18:13;4.55;;;2.72;;
74215;SDS011;62577;53.378;-2.914;2022-09-20T17:20:39;6.85;;;2.70;;
74215;SDS011;62577;53.378;-2.914;2022-09-20T17:23:06;5.30;;;3.17;;
74215;SDS011;62577;53.378;-2.914;2022-09-20T17:25:33;5.50;;;3.63;;
74215;SDS011;62577;53.378;-2.914;2022-09-20T17:27:59;6.68;;;3.80;;
74215;SDS011;62577;53.378;-2.914;2022-09-20T17:30:25;4.20;;;2.67;;
74215;SDS011;62577;53.378;-2.914;2022-09-20T17:32:51;3.55;;;2.33;;
74215;SDS011;62577;53.378;-2.914;2022-09-20T17:35:18;4.40;;;2.20;;
74215;SDS011;62577;53.378;-2.914;2022-09-20T17:37:45;5.68;;;3.35;;
74215;SDS011;62577;53.378;-2.914;2022-09-20T17:40:11;4.50;;;2.50;;
74215;SDS011;62577;53.378;-2.914;2022-09-20T17:42:37;4.55;;;2.72;;
74215;SDS011;62577;53.378;-2.914;2022-09-20T17:45:03;3.83;;;2.58;;
74215;SDS011;62577;53.378;-2.914;2022-09-20T17:47:29;5.00;;;2.72;;
74215;SDS011;62577;53.378;-2.914;2022-09-20T17:49:55;5.25;;;2.80;;
74215;SDS011;62577;53.378;-2.914;2022-09-20T17:52:21;3.83;;;2.55;;
74215;SDS011;62577;53.378;-2.914;2022-09-20T17:54:47;5.80;;;2.67;;
74215;SDS011;62577;53.378;-2.914;2022-09-20T17:57:13;4.57;;;3.00;;
74215;SDS011;62577;53.378;-2.914;2022-09-20T17:59:39;4.40;;;2.50;;
74215;SDS011;62577;53.378;-2.914;2022-09-20T18:02:05;4.45;;;2.75;;
74215;SDS011;62577;53.378;-2.914;2022-09-20T18:04:31;7.68;;;3.40;;
74215;SDS011;62577;53.378;-2.914;2022-09-20T18:06:57;6.20;;;2.80;;
74215;SDS011;62577;53.378;-2.914;2022-09-20T18:09:25;6.57;;;3.20;;
74215;SDS011;62577;53.378;-2.914;2022-09-20T18:11:52;4.13;;;2.35;;
74215;SDS011;62577;53.378;-2.914;2022-09-20T18:14:20;3.88;;;2.70;;
74215;SDS011;62577;53.378;-2.914;2022-09-20T18:19:13;3.83;;;2.35;;
74215;SDS011;62577;53.378;-2.914;2022-09-20T18:21:40;5.60;;;2.92;;
74215;SDS011;62577;53.378;-2.914;2022-09-20T18:24:07;5.40;;;3.40;;
74215;SDS011;62577;53.378;-2.914;2022-09-20T18:26:33;4.13;;;2.50;;
74215;SDS011;62577;53.378;-2.914;2022-09-20T18:29:00;6.20;;;3.08;;
74215;SDS011;62577;53.378;-2.914;2022-09-20T18:31:30;5.15;;;2.72;;
74215;SDS011;62577;53.378;-2.914;2022-09-20T18:33:57;4.88;;;2.92;;
74215;SDS011;62577;53.378;-2.914;2022-09-20T18:36:24;6.35;;;3.67;;
74215;SDS011;62577;53.378;-2.914;2022-09-20T18:38:51;5.55;;;3.08;;
74215;SDS011;62577;53.378;-2.914;2022-09-20T18:41:28;4.53;;;3.30;;
74215;SDS011;62577;53.378;-2.914;2022-09-20T18:43:55;6.22;;;3.15;;
74215;SDS011;62577;53.378;-2.914;2022-09-20T18:46:23;5.95;;;2.85;;
74215;SDS011;62577;53.378;-2.914;2022-09-20T18:48:59;4.97;;;2.97;;
74215;SDS011;62577;53.378;-2.914;2022-09-20T18:51:29;5.43;;;3.00;;
74215;SDS011;62577;53.378;-2.914;2022-09-20T18:53:55;5.15;;;2.70;;
74215;SDS011;62577;53.378;-2.914;2022-09-20T18:56:23;5.13;;;3.10;;
74215;SDS011;62577;53.378;-2.914;2022-09-20T18:58:53;4.13;;;3.00;;
74215;SDS011;62577;53.378;-2.914;2022-09-20T19:03:54;4.50;;;3.30;;
74215;SDS011;62577;53.378;-2.914;2022-09-20T19:06:22;4.57;;;3.15;;
74215;SDS011;62577;53.378;-2.914;2022-09-20T19:08:55;5.72;;;3.53;;
74215;SDS011;62577;53.378;-2.914;2022-09-20T19:11:30;4.90;;;3.20;;
74215;SDS011;62577;53.378;-2.914;2022-09-20T19:13:58;5.03;;;3.42;;
74215;SDS011;62577;53.378;-2.914;2022-09-20T19:16:28;5.47;;;2.97;;
74215;SDS011;62577;53.378;-2.914;2022-09-20T19:21:44;6.65;;;3.58;;
74215;SDS011;62577;53.378;-2.914;2022-09-20T19:26:55;6.80;;;4.05;;
74215;SDS011;62577;53.378;-2.914;2022-09-20T19:29:25;8.15;;;5.07;;
74215;SDS011;62577;53.378;-2.914;2022-09-20T19:31:53;5.70;;;2.95;;
74215;SDS011;62577;53.378;-2.914;2022-09-20T19:34:20;5.50;;;3.30;;
74215;SDS011;62577;53.378;-2.914;2022-09-20T19:49:53;7.50;;;3.75;;
74215;SDS011;62577;53.378;-2.914;2022-09-20T19:52:20;6.55;;;3.95;;
74215;SDS011;62577;53.378;-2.914;2022-09-20T19:54:47;6.03;;;3.67;;
74215;SDS011;62577;53.378;-2.914;2022-09-20T19:57:23;7.43;;;4.07;;
74215;SDS011;62577;53.378;-2.914;2022-09-20T19:59:54;7.28;;;4.28;;
74215;SDS011;62577;53.378;-2.914;2022-09-20T20:02:21;5.13;;;3.92;;
74215;SDS011;62577;53.378;-2.914;2022-09-20T20:04:47;6.60;;;3.50;;
74215;SDS011;62577;53.378;-2.914;2022-09-20T20:25:43;6.63;;;4.05;;
74215;SDS011;62577;53.378;-2.914;2022-09-20T20:28:11;6.57;;;4.15;;
74215;SDS011;62577;53.378;-2.914;2022-09-20T20:30:38;8.32;;;4.40;;
74215;SDS011;62577;53.378;-2.914;2022-09-20T20:33:04;5.85;;;4.00;;
74215;SDS011;62577;53.378;-2.914;2022-09-20T20:35:31;5.63;;;4.00;;
74215;SDS011;62577;53.378;-2.914;2022-09-20T20:37:57;6.63;;;4.20;;